Winona

*Note: All times are displayed in the local standard time of the station location.
**Rain - Equipment is designed to accurately record liquid precipitation; under conditions when precipitation is not in liquid form, the data displayed may not properly reflect rainfall values.

Date Max Temp
(°C)
Min Temp
(°C)
Avg Temp
(°C)
Rain (mm) Avg RH (%) Solar Rad (kJ/m2)
Mon, Apr 23, 2018 10.5 -1.2 5.4 0.0 85.8 19341.7
Sun, Apr 22, 2018 16.4 -2.2 7.5 0.0 66.9 19292.1
Sat, Apr 21, 2018 14.9 -3.1 6.2 0.0 69.5 17218.3
Fri, Apr 20, 2018 9.2 -2.2 3.3 0.0 78.0 18815.0
Thu, Apr 19, 2018 5.1 0.8 2.3 0.0 82.9 8356.9
Wed, Apr 18, 2018 4.2 0.7 2.4 0.0 93.0 7023.0
Tue, Apr 17, 2018 2.1 -0.8 0.8 0.0 90.8 9193.9
DateTime Avg Temp (°C) Rain (mm) RH (%) Solar Rad (kJ/m2)
Tue, Apr 24, 2018 17:00 14.5 0.0 82.0 417.5
Tue, Apr 24, 2018 16:00 17.1 0.0 62.5 764.9
Tue, Apr 24, 2018 15:00 17.6 0.0 60.5 1229.3
Tue, Apr 24, 2018 14:00 17.1 0.0 61.8 1273.0
Tue, Apr 24, 2018 13:00 16.8 0.0 62.0 1373.6
Tue, Apr 24, 2018 12:00 14.6 0.0 70.0 991.7
Tue, Apr 24, 2018 11:00 13.9 0.0 78.0 941.5
Tue, Apr 24, 2018 10:00 13.2 0.0 83.5 674.5
Tue, Apr 24, 2018 09:00 13.3 0.0 82.0 390.5
Tue, Apr 24, 2018 08:00 13.2 0.0 77.8 163.6
Tue, Apr 24, 2018 07:00 11.1 0.0 85.5 19.4
Tue, Apr 24, 2018 06:00 4.9 0.0 96.0 0.0
Tue, Apr 24, 2018 05:00 4.6 0.0 98.5 0.0
Tue, Apr 24, 2018 04:00 4.4 0.0 98.3 0.0
Tue, Apr 24, 2018 03:00 4.2 0.0 99.5 0.0
Tue, Apr 24, 2018 02:00 4.3 0.0 99.0 0.0
Tue, Apr 24, 2018 01:00 4.2 0.0 96.8 0.0
Tue, Apr 24, 2018 00:00 4.5 0.0 93.5 0.0
Mon, Apr 23, 2018 23:00 4.7 0.0 92.5 0.0
Mon, Apr 23, 2018 22:00 5.2 0.0 89.5 0.0
Mon, Apr 23, 2018 21:00 5.9 0.0 84.8 2.2
Mon, Apr 23, 2018 20:00 7.0 0.0 79.3 133.6
Mon, Apr 23, 2018 19:00 7.6 0.0 80.3 470.0
Mon, Apr 23, 2018 18:00 8.6 0.0 78.0 992.6
Mon, Apr 23, 2018 17:00 9.5 0.0 75.0 1474.3
Mon, Apr 23, 2018 16:00 10.1 0.0 69.8 1896.4
Mon, Apr 23, 2018 15:00 10.0 0.0 72.0 2238.2
Mon, Apr 23, 2018 14:00 9.4 0.0 75.3 2442.5
Mon, Apr 23, 2018 13:00 9.7 0.0 71.8 2483.3
Mon, Apr 23, 2018 12:00 9.8 0.0 68.5 2346.0
Mon, Apr 23, 2018 11:00 8.3 0.0 79.3 2038.1
Mon, Apr 23, 2018 10:00 7.9 0.0 81.5 1595.2
Mon, Apr 23, 2018 09:00 4.9 0.0 98.3 937.6
Mon, Apr 23, 2018 08:00 2.3 0.0 100.0 230.2
Mon, Apr 23, 2018 07:00 -0.9 0.0 100.0 45.0
Mon, Apr 23, 2018 06:00 -0.2 0.0 99.8 3.7
Mon, Apr 23, 2018 05:00 0.1 0.0 96.8 1.5
Mon, Apr 23, 2018 04:00 0.1 0.0 94.3 2.7
Mon, Apr 23, 2018 03:00 1.2 0.0 87.5 3.1
Mon, Apr 23, 2018 02:00 1.6 0.0 95.8 2.1
Mon, Apr 23, 2018 01:00 2.2 0.0 96.8 3.4
Mon, Apr 23, 2018 00:00 2.3 0.0 96.3 2.8
Sun, Apr 22, 2018 23:00 4.7 0.0 87.3 2.1
Sun, Apr 22, 2018 22:00 6.5 0.0 77.8 2.1
Sun, Apr 22, 2018 21:00 10.0 0.0 61.5 6.2
Sun, Apr 22, 2018 20:00 14.4 0.0 37.3 128.3
Sun, Apr 22, 2018 19:00 16.2 0.0 30.3 545.0
Sun, Apr 22, 2018 18:00 16.3 0.0 29.0 1016.0


asterix Register now to access more data! asterix